createdAt,value
2019-02-17T00:00:31.460Z,24.17
2019-02-17T00:03:01.175Z,24.10
2019-02-17T00:05:30.424Z,22.60
2019-02-17T00:07:59.923Z,23.40
2019-02-17T00:10:29.578Z,23.47
2019-02-17T00:12:59.274Z,23.83
2019-02-17T00:15:28.744Z,25.20
2019-02-17T00:17:58.528Z,23.57
2019-02-17T00:20:27.884Z,23.60
2019-02-17T00:22:58.519Z,22.77
2019-02-17T00:25:28.165Z,24.80
2019-02-17T00:27:57.049Z,23.60
2019-02-17T00:30:27.075Z,25.37
2019-02-17T00:32:56.383Z,28.17
2019-02-17T00:35:25.869Z,26.77
2019-02-17T00:37:55.502Z,27.60
2019-02-17T00:40:24.925Z,24.77
2019-02-17T00:42:54.934Z,26.17
2019-02-17T00:45:24.954Z,23.73
2019-02-17T00:47:54.486Z,23.87
2019-02-17T00:50:23.862Z,24.20
2019-02-17T00:52:53.949Z,24.50
2019-02-17T00:55:24.069Z,22.60
2019-02-17T00:57:54.347Z,23.30
2019-02-17T01:00:24.446Z,22.73
2019-02-17T01:02:53.881Z,23.67
2019-02-17T01:05:23.322Z,23.17
2019-02-17T01:07:53.218Z,24.03
2019-02-17T01:10:23.374Z,22.57
2019-02-17T01:12:53.907Z,23.53
2019-02-17T01:15:24.281Z,26.00
2019-02-17T01:17:53.922Z,24.77
2019-02-17T01:20:24.227Z,23.17
2019-02-17T01:22:56.043Z,23.47
2019-02-17T01:25:26.660Z,23.83
2019-02-17T01:27:55.962Z,24.87
2019-02-17T01:30:25.671Z,25.30
2019-02-17T01:32:55.586Z,25.70
2019-02-17T01:35:25.042Z,25.13
2019-02-17T01:37:54.384Z,24.20
2019-02-17T01:40:23.825Z,23.07
2019-02-17T01:42:53.278Z,23.90
2019-02-17T01:45:24.063Z,22.83
2019-02-17T01:47:53.721Z,22.50
2019-02-17T01:50:23.414Z,23.70
2019-02-17T01:52:54.608Z,25.67
2019-02-17T01:55:24.334Z,23.90
2019-02-17T01:57:53.964Z,26.03
2019-02-17T02:00:22.892Z,23.90
2019-02-17T02:02:52.297Z,23.20
2019-02-17T02:05:22.368Z,23.77
2019-02-17T02:07:51.954Z,24.80
2019-02-17T02:10:21.280Z,24.63
2019-02-17T02:12:52.211Z,24.70
2019-02-17T02:15:22.041Z,23.17
2019-02-17T02:17:53.092Z,24.23
2019-02-17T02:20:23.364Z,23.77
2019-02-17T02:22:53.441Z,24.60
2019-02-17T02:25:23.139Z,24.23
2019-02-17T02:27:52.646Z,24.17
2019-02-17T02:30:22.681Z,26.43
2019-02-17T02:32:51.831Z,24.30
2019-02-17T02:35:21.460Z,24.13
2019-02-17T02:37:51.020Z,22.03
2019-02-17T02:40:21.938Z,22.20
2019-02-17T02:42:51.622Z,24.07
2019-02-17T02:45:22.037Z,24.30
2019-02-17T02:47:51.746Z,22.63
2019-02-17T02:50:22.372Z,23.00
2019-02-17T02:52:52.013Z,24.03
2019-02-17T02:55:21.459Z,21.90
2019-02-17T02:57:51.002Z,23.73
2019-02-17T03:00:21.100Z,21.70
2019-02-17T03:02:50.516Z,26.83
2019-02-17T03:05:20.225Z,22.73
2019-02-17T03:07:50.219Z,22.67
2019-02-17T03:10:19.388Z,22.57
2019-02-17T03:12:48.998Z,22.43
2019-02-17T03:15:18.608Z,23.03
2019-02-17T03:17:48.617Z,22.97
2019-02-17T03:20:17.713Z,24.70
2019-02-17T03:22:47.368Z,20.57
2019-02-17T03:25:17.355Z,21.70
2019-02-17T03:27:47.259Z,22.67
2019-02-17T03:30:17.450Z,20.70
2019-02-17T03:32:46.871Z,20.80
2019-02-17T03:35:16.328Z,22.63
2019-02-17T03:37:46.391Z,22.77
2019-02-17T03:40:16.039Z,23.40
2019-02-17T03:42:45.704Z,22.57
2019-02-17T03:45:15.812Z,23.00
2019-02-17T03:47:45.041Z,21.50
2019-02-17T03:50:14.357Z,22.17
2019-02-17T03:52:44.938Z,21.90
2019-02-17T03:55:14.688Z,23.67
2019-02-17T03:57:44.829Z,22.27
2019-02-17T04:00:17.092Z,23.27
2019-02-17T04:02:45.627Z,23.17
2019-02-17T04:05:14.963Z,21.23
2019-02-17T04:07:44.869Z,23.93
2019-02-17T04:10:14.483Z,22.40
2019-02-17T04:12:44.649Z,24.13
2019-02-17T04:15:14.319Z,21.93
2019-02-17T04:17:44.318Z,23.43
2019-02-17T04:20:14.918Z,22.27
2019-02-17T04:22:44.680Z,22.50
2019-02-17T04:25:14.158Z,24.33
2019-02-17T04:27:43.758Z,23.37
2019-02-17T04:30:13.773Z,24.20
2019-02-17T04:32:43.742Z,23.20
2019-02-17T04:35:13.063Z,22.67
2019-02-17T04:37:41.977Z,22.80
2019-02-17T04:40:11.357Z,22.43
2019-02-17T04:42:41.021Z,22.10
2019-02-17T04:45:11.996Z,21.20
2019-02-17T04:47:41.286Z,23.60
2019-02-17T04:50:11.234Z,22.30
2019-02-17T04:52:40.723Z,22.17
2019-02-17T04:55:12.381Z,20.57
2019-02-17T04:57:41.669Z,22.50
2019-02-17T05:00:11.986Z,22.30
2019-02-17T05:02:41.896Z,22.97
2019-02-17T05:05:11.453Z,20.90
2019-02-17T05:07:41.018Z,22.07
2019-02-17T05:10:10.743Z,20.60
2019-02-17T05:12:41.089Z,21.90
2019-02-17T05:15:13.079Z,22.97
2019-02-17T05:17:42.271Z,24.07
2019-02-17T05:20:11.582Z,23.07
2019-02-17T05:22:40.885Z,22.70
2019-02-17T05:25:10.159Z,21.10
2019-02-17T05:27:39.753Z,22.50
2019-02-17T05:30:11.441Z,21.57
2019-02-17T05:32:40.363Z,21.83
2019-02-17T05:35:09.236Z,23.17
2019-02-17T05:37:38.752Z,23.17
2019-02-17T05:40:08.368Z,22.97
2019-02-17T05:42:37.218Z,23.93
2019-02-17T05:45:07.562Z,21.50
2019-02-17T05:47:36.705Z,22.17
2019-02-17T05:50:07.246Z,21.60
2019-02-17T05:52:36.573Z,24.90
2019-02-17T05:55:06.885Z,24.20
2019-02-17T05:57:36.797Z,23.50
2019-02-17T06:00:08.587Z,31.37
2019-02-17T06:02:38.369Z,29.93
2019-02-17T06:05:08.762Z,30.87
2019-02-17T06:07:39.130Z,30.17
2019-02-17T06:10:10.270Z,30.87
2019-02-17T06:12:40.052Z,26.90
2019-02-17T06:15:09.630Z,26.37
2019-02-17T06:17:40.772Z,25.60
2019-02-17T06:20:11.300Z,23.03
2019-02-17T06:22:41.365Z,25.13
2019-02-17T06:25:10.439Z,24.70
2019-02-17T06:27:39.705Z,22.93
2019-02-17T06:30:09.865Z,25.10
2019-02-17T06:32:39.520Z,23.27
2019-02-17T06:35:09.250Z,22.17
2019-02-17T06:37:39.054Z,24.10
2019-02-17T06:40:09.394Z,23.37
2019-02-17T06:42:38.570Z,21.70
2019-02-17T06:45:10.124Z,23.30
2019-02-17T06:47:39.417Z,23.90
2019-02-17T06:50:10.176Z,21.80
2019-02-17T06:52:40.849Z,20.67
2019-02-17T06:55:26.384Z,22.50
2019-02-17T06:57:56.963Z,23.00
2019-02-17T07:00:27.729Z,21.93
2019-02-17T07:02:57.474Z,24.33
2019-02-17T07:05:37.261Z,21.77
2019-02-17T07:08:06.321Z,23.63
2019-02-17T07:10:35.456Z,24.23
2019-02-17T07:13:04.562Z,24.20
2019-02-17T07:15:33.509Z,23.57
2019-02-17T07:18:03.128Z,25.77
2019-02-17T07:20:33.229Z,22.23
2019-02-17T07:23:02.383Z,24.33
2019-02-17T07:25:31.563Z,22.77
2019-02-17T07:28:00.657Z,22.20
2019-02-17T07:30:29.575Z,23.60
2019-02-17T07:32:58.671Z,25.13
2019-02-17T07:35:29.474Z,23.87
2019-02-17T07:37:59.046Z,24.00
2019-02-17T07:40:28.035Z,24.97
2019-02-17T07:42:57.648Z,24.37
2019-02-17T07:45:27.116Z,23.67
2019-02-17T07:47:56.947Z,26.50
2019-02-17T07:50:27.775Z,24.30
2019-02-17T07:52:56.691Z,25.70
2019-02-17T07:55:25.881Z,24.47
2019-02-17T07:57:54.850Z,25.27
2019-02-17T08:00:24.134Z,24.97
2019-02-17T08:02:53.744Z,27.80
2019-02-17T08:05:23.910Z,28.50
2019-02-17T08:07:53.625Z,30.17
2019-02-17T08:10:22.727Z,28.30
2019-02-17T08:12:52.419Z,29.03
2019-02-17T08:15:21.217Z,28.57
2019-02-17T08:17:50.399Z,27.40
2019-02-17T08:20:19.888Z,29.23
2019-02-17T08:22:48.817Z,28.83
2019-02-17T08:25:21.930Z,28.60
2019-02-17T08:27:49.378Z,32.30
2019-02-17T08:30:18.864Z,31.30
2019-02-17T08:32:47.629Z,31.97
2019-02-17T08:35:17.064Z,29.30
2019-02-17T08:37:46.418Z,30.00
2019-02-17T08:40:15.907Z,31.63
2019-02-17T08:42:44.913Z,30.07
2019-02-17T08:45:13.830Z,29.63
2019-02-17T08:47:42.996Z,30.20
2019-02-17T08:50:13.154Z,30.97
2019-02-17T08:52:42.830Z,30.83
2019-02-17T08:55:11.858Z,27.83
2019-02-17T08:57:40.939Z,29.77
2019-02-17T09:00:14.471Z,28.27
2019-02-17T09:02:43.368Z,28.30
2019-02-17T09:05:12.573Z,27.20
2019-02-17T09:07:42.113Z,29.10
2019-02-17T09:10:12.660Z,28.20
2019-02-17T09:12:43.164Z,29.17
2019-02-17T09:15:12.988Z,31.00
2019-02-17T09:17:42.664Z,30.17
2019-02-17T09:20:12.614Z,28.80
2019-02-17T09:22:41.649Z,28.87
2019-02-17T09:25:11.889Z,28.73
2019-02-17T09:27:41.193Z,29.20
2019-02-17T09:30:13.062Z,29.20
2019-02-17T09:32:42.242Z,31.87
2019-02-17T09:35:11.739Z,29.47
2019-02-17T09:37:40.568Z,27.13
2019-02-17T09:40:13.472Z,30.03
2019-02-17T09:42:42.638Z,27.00
2019-02-17T09:45:15.725Z,30.00
2019-02-17T09:47:45.379Z,29.30
2019-02-17T09:50:15.612Z,27.47
2019-02-17T09:52:44.811Z,29.03
2019-02-17T09:55:13.998Z,27.30
2019-02-17T09:57:43.603Z,26.40
2019-02-17T10:00:17.832Z,29.30
2019-02-17T10:02:47.116Z,27.83
2019-02-17T10:05:16.606Z,28.13
2019-02-17T10:07:45.778Z,27.53
2019-02-17T10:10:18.987Z,26.77
2019-02-17T10:12:48.615Z,29.50
2019-02-17T10:15:17.871Z,24.13
2019-02-17T10:17:47.417Z,27.60
2019-02-17T10:20:17.411Z,25.83
2019-02-17T10:22:46.197Z,27.40
2019-02-17T10:25:15.791Z,26.43
2019-02-17T10:27:45.063Z,26.77
2019-02-17T10:30:18.076Z,26.73
2019-02-17T10:32:47.347Z,25.20
2019-02-17T10:35:17.696Z,25.53
2019-02-17T10:37:46.930Z,26.23
2019-02-17T10:40:18.407Z,26.53
2019-02-17T10:42:47.635Z,26.03
2019-02-17T10:45:16.789Z,27.57
2019-02-17T10:47:45.796Z,26.37
2019-02-17T10:50:15.145Z,28.10
2019-02-17T10:52:44.811Z,24.30
2019-02-17T10:55:14.590Z,26.20
2019-02-17T10:57:44.067Z,26.40
2019-02-17T11:00:17.703Z,26.23
2019-02-17T11:02:47.731Z,25.73
2019-02-17T11:05:17.164Z,24.90
2019-02-17T11:07:46.341Z,26.90
2019-02-17T11:10:16.475Z,25.47
2019-02-17T11:12:45.413Z,26.90
2019-02-17T11:15:20.882Z,26.20
2019-02-17T11:17:50.456Z,26.40
2019-02-17T11:20:19.511Z,28.13
2019-02-17T11:22:48.841Z,24.93
2019-02-17T11:25:17.600Z,26.30
2019-02-17T11:27:46.840Z,25.67
2019-02-17T11:30:18.731Z,27.60
2019-02-17T11:32:57.615Z,28.30
2019-02-17T11:35:19.093Z,27.17
2019-02-17T11:37:47.968Z,27.37
2019-02-17T11:40:17.478Z,25.90
2019-02-17T11:42:47.222Z,26.00
2019-02-17T11:45:18.367Z,28.50
2019-02-17T11:47:47.323Z,28.53
2019-02-17T11:50:17.821Z,28.03
2019-02-17T11:52:47.154Z,31.40
2019-02-17T11:55:16.956Z,27.40
2019-02-17T11:57:46.064Z,27.57
2019-02-17T12:00:17.264Z,28.90
2019-02-17T12:02:46.096Z,28.77
2019-02-17T12:05:15.197Z,30.10
2019-02-17T12:07:44.825Z,30.47
2019-02-17T12:10:14.083Z,27.90
2019-02-17T12:12:43.379Z,28.07
2019-02-17T12:15:14.010Z,28.13
2019-02-17T12:17:43.489Z,30.90
2019-02-17T12:20:21.938Z,30.30
2019-02-17T12:22:52.699Z,28.10
2019-02-17T12:25:23.263Z,29.40
2019-02-17T12:27:53.856Z,29.30
2019-02-17T12:30:23.050Z,30.33
2019-02-17T12:32:52.025Z,30.70
2019-02-17T12:35:22.721Z,30.23
2019-02-17T12:37:51.523Z,30.47
2019-02-17T12:40:21.001Z,30.43
2019-02-17T12:42:51.146Z,32.37
2019-02-17T12:45:19.979Z,30.40
2019-02-17T12:47:57.503Z,30.70
2019-02-17T12:50:20.161Z,30.37
2019-02-17T12:52:49.245Z,29.97
2019-02-17T12:55:18.946Z,29.63
2019-02-17T12:57:47.871Z,30.17
2019-02-17T13:00:18.215Z,29.90
2019-02-17T13:02:47.100Z,30.03
2019-02-17T13:05:16.591Z,29.53
2019-02-17T13:07:46.046Z,30.27
2019-02-17T13:10:15.053Z,31.07
2019-02-17T13:12:44.324Z,30.33
2019-02-17T13:15:14.529Z,30.27
2019-02-17T13:17:43.570Z,31.50
2019-02-17T13:20:13.535Z,29.80
2019-02-17T13:22:42.680Z,27.10
2019-02-17T13:25:14.051Z,30.20
2019-02-17T13:27:42.907Z,29.60
2019-02-17T13:30:17.380Z,28.70
2019-02-17T13:32:46.333Z,29.63
2019-02-17T13:35:15.591Z,27.53
2019-02-17T13:37:44.607Z,28.53
2019-02-17T13:40:14.498Z,28.57
2019-02-17T13:42:43.773Z,28.77
2019-02-17T13:45:14.591Z,29.17
2019-02-17T13:47:44.365Z,28.97
2019-02-17T13:50:17.501Z,27.73
2019-02-17T13:52:46.612Z,27.93
2019-02-17T13:55:16.090Z,28.33
2019-02-17T13:57:47.188Z,28.30
2019-02-17T14:00:22.672Z,26.40
2019-02-17T14:02:52.491Z,28.17
2019-02-17T14:05:21.524Z,27.43
2019-02-17T14:07:50.345Z,28.20
2019-02-17T14:10:20.106Z,26.23
2019-02-17T14:12:49.577Z,26.13
2019-02-17T14:15:21.940Z,27.30
2019-02-17T14:17:50.902Z,26.50
2019-02-17T14:20:20.051Z,28.07
2019-02-17T14:22:49.421Z,27.17
2019-02-17T14:25:18.253Z,26.13
2019-02-17T14:27:47.346Z,26.63
2019-02-17T14:30:18.129Z,25.60
2019-02-17T14:32:46.993Z,27.10
2019-02-17T14:35:15.909Z,27.40
2019-02-17T14:37:45.138Z,25.73
2019-02-17T14:40:14.934Z,26.07
2019-02-17T14:42:44.212Z,27.57
2019-02-17T14:45:17.251Z,26.40
2019-02-17T14:47:47.052Z,23.60
2019-02-17T14:50:16.803Z,26.77
2019-02-17T14:52:46.129Z,27.47
2019-02-17T14:55:15.043Z,25.87
2019-02-17T14:57:43.884Z,25.33
2019-02-17T15:00:15.275Z,23.40
2019-02-17T15:02:44.701Z,26.63
2019-02-17T15:05:13.566Z,25.90
2019-02-17T15:07:42.418Z,25.33
2019-02-17T15:10:15.133Z,25.93
2019-02-17T15:12:44.003Z,24.30
2019-02-17T15:15:14.821Z,23.47
2019-02-17T15:17:44.271Z,24.30
2019-02-17T15:20:21.834Z,25.90
2019-02-17T15:22:51.371Z,22.70
2019-02-17T15:25:20.554Z,23.60
2019-02-17T15:27:49.590Z,22.97
2019-02-17T15:30:19.758Z,24.67
2019-02-17T15:32:49.360Z,23.27
2019-02-17T15:35:18.462Z,24.07
2019-02-17T15:37:47.467Z,22.37
2019-02-17T15:40:16.789Z,27.47
2019-02-17T15:42:45.998Z,23.90
2019-02-17T15:45:15.933Z,23.43
2019-02-17T15:47:44.975Z,23.83
2019-02-17T15:50:14.997Z,23.40
2019-02-17T15:52:44.398Z,22.37
2019-02-17T15:55:14.533Z,23.63
2019-02-17T15:57:43.754Z,25.30
2019-02-17T16:00:15.699Z,24.47
2019-02-17T16:02:45.011Z,23.23
2019-02-17T16:05:14.257Z,24.00
2019-02-17T16:07:43.349Z,26.30
2019-02-17T16:10:14.538Z,24.73
2019-02-17T16:12:43.625Z,23.80
2019-02-17T16:15:24.851Z,23.20
2019-02-17T16:17:54.253Z,26.30
2019-02-17T16:20:23.242Z,25.70
2019-02-17T16:22:52.516Z,23.93
2019-02-17T16:25:21.526Z,25.17
2019-02-17T16:27:51.390Z,24.43
2019-02-17T16:30:24.054Z,22.00
2019-02-17T16:32:54.593Z,25.30
2019-02-17T16:35:23.788Z,25.30
2019-02-17T16:37:53.387Z,24.20
2019-02-17T16:40:22.305Z,25.50
2019-02-17T16:42:51.500Z,25.00
2019-02-17T16:45:21.016Z,26.33
2019-02-17T16:47:52.091Z,23.90
2019-02-17T16:50:22.514Z,26.60
2019-02-17T16:52:51.533Z,25.57
2019-02-17T16:55:20.764Z,27.37
2019-02-17T16:57:49.668Z,24.90
2019-02-17T17:00:24.723Z,26.60
2019-02-17T17:02:54.786Z,28.73
2019-02-17T17:05:24.276Z,28.40
2019-02-17T17:07:53.308Z,27.17
2019-02-17T17:10:22.475Z,29.10
2019-02-17T17:12:51.728Z,28.33
2019-02-17T17:15:20.767Z,27.90
2019-02-17T17:17:49.471Z,29.77
2019-02-17T17:20:22.625Z,32.37
2019-02-17T17:22:51.461Z,30.70
2019-02-17T17:25:20.375Z,28.97
2019-02-17T17:27:49.304Z,29.17
2019-02-17T17:30:19.627Z,27.07
2019-02-17T17:32:48.691Z,27.93
2019-02-17T17:35:18.033Z,27.20
2019-02-17T17:37:47.106Z,28.57
2019-02-17T17:40:16.700Z,25.90
2019-02-17T17:42:45.679Z,27.00
2019-02-17T17:45:21.010Z,25.87
2019-02-17T17:47:50.216Z,26.60
2019-02-17T17:50:19.269Z,28.40
2019-02-17T17:52:48.363Z,28.17
2019-02-17T17:55:17.400Z,28.33
2019-02-17T17:57:46.667Z,27.27
2019-02-17T18:00:19.303Z,27.17
2019-02-17T18:02:48.153Z,29.23
2019-02-17T18:05:17.190Z,29.67
2019-02-17T18:07:46.217Z,29.90
2019-02-17T18:10:16.453Z,29.70
2019-02-17T18:12:45.685Z,28.80
2019-02-17T18:15:20.350Z,30.43
2019-02-17T18:17:54.680Z,28.93
2019-02-17T18:20:20.043Z,28.03
2019-02-17T18:22:49.276Z,27.20
2019-02-17T18:25:18.560Z,30.10
2019-02-17T18:27:47.209Z,28.57
2019-02-17T18:30:17.665Z,27.93
2019-02-17T18:32:46.500Z,27.80
2019-02-17T18:35:19.863Z,26.57
2019-02-17T18:37:46.528Z,29.23
2019-02-17T18:40:21.248Z,27.47
2019-02-17T18:42:50.260Z,26.70
2019-02-17T18:45:19.232Z,25.83
2019-02-17T18:47:48.915Z,27.50
2019-02-17T18:50:21.109Z,27.20
2019-02-17T18:52:50.672Z,28.13
2019-02-17T18:55:20.186Z,27.03
2019-02-17T18:57:51.104Z,26.53
2019-02-17T19:00:27.230Z,25.33
2019-02-17T19:02:56.295Z,29.00
2019-02-17T19:05:32.018Z,27.47
2019-02-17T19:07:57.699Z,28.73
2019-02-17T19:10:26.671Z,28.90
2019-02-17T19:12:57.541Z,27.10
2019-02-17T19:15:26.550Z,28.73
2019-02-17T19:17:55.865Z,28.40
2019-02-17T19:20:33.831Z,29.13
2019-02-17T19:23:03.142Z,28.43
2019-02-17T19:25:31.950Z,28.00
2019-02-17T19:28:00.918Z,30.47
2019-02-17T19:30:29.806Z,28.50
2019-02-17T19:32:59.311Z,31.40
2019-02-17T19:35:29.478Z,31.37
2019-02-17T19:37:58.584Z,39.50
2019-02-17T19:40:27.758Z,34.67
2019-02-17T19:42:57.101Z,37.33
2019-02-17T19:45:25.878Z,37.27
2019-02-17T19:47:55.702Z,36.40
2019-02-17T19:50:24.919Z,34.70
2019-02-17T19:52:53.873Z,32.30
2019-02-17T19:55:23.036Z,30.30
2019-02-17T19:57:52.083Z,30.43
2019-02-17T20:00:23.140Z,27.63
2019-02-17T20:03:05.698Z,26.97
2019-02-17T20:05:36.186Z,27.93
2019-02-17T20:08:05.814Z,26.50
2019-02-17T20:10:36.835Z,27.10
2019-02-17T20:13:08.330Z,28.80
2019-02-17T20:15:37.341Z,28.30
2019-02-17T20:18:06.540Z,27.73
2019-02-17T20:20:36.364Z,25.90
2019-02-17T20:23:06.132Z,26.77
2019-02-17T20:25:35.504Z,25.77
2019-02-17T20:28:04.962Z,27.57
2019-02-17T20:30:34.423Z,25.60
2019-02-17T20:33:03.714Z,28.07
2019-02-17T20:35:32.366Z,26.43
2019-02-17T20:38:01.530Z,27.00
2019-02-17T20:40:30.764Z,26.27
2019-02-17T20:43:00.775Z,26.33
2019-02-17T20:45:30.326Z,25.30
2019-02-17T20:47:59.912Z,25.73
2019-02-17T20:50:29.460Z,28.93
2019-02-17T20:52:58.476Z,28.17
2019-02-17T20:55:27.347Z,24.37
2019-02-17T20:57:58.474Z,24.30
2019-02-17T21:00:29.122Z,23.87
2019-02-17T21:02:58.377Z,26.73
2019-02-17T21:05:27.606Z,26.60
2019-02-17T21:07:56.946Z,26.33
2019-02-17T21:10:26.134Z,25.90
2019-02-17T21:12:54.951Z,25.40
2019-02-17T21:15:24.471Z,24.63
2019-02-17T21:17:53.634Z,26.20
2019-02-17T21:20:24.421Z,25.10
2019-02-17T21:22:53.543Z,25.53
2019-02-17T21:25:23.029Z,25.27
2019-02-17T21:27:52.383Z,24.60
2019-02-17T21:30:21.628Z,25.23
2019-02-17T21:32:50.632Z,25.07
2019-02-17T21:35:19.806Z,27.73
2019-02-17T21:37:49.885Z,22.80
2019-02-17T21:40:19.610Z,26.07
2019-02-17T21:42:49.161Z,24.80
2019-02-17T21:45:18.565Z,25.30
2019-02-17T21:47:47.680Z,25.70
2019-02-17T21:50:16.780Z,25.07
2019-02-17T21:52:45.907Z,24.73
2019-02-17T21:55:15.923Z,23.53
2019-02-17T21:57:44.980Z,24.50
2019-02-17T22:00:21.337Z,24.13
2019-02-17T22:02:50.525Z,24.50
2019-02-17T22:05:20.214Z,27.13
2019-02-17T22:07:50.493Z,25.70
2019-02-17T22:10:20.951Z,24.40
2019-02-17T22:12:51.347Z,24.87
2019-02-17T22:15:21.761Z,27.70
2019-02-17T22:17:50.824Z,25.80
2019-02-17T22:20:20.092Z,24.00
2019-02-17T22:22:50.070Z,26.80
2019-02-17T22:25:19.052Z,25.80
2019-02-17T22:27:48.185Z,24.33
2019-02-17T22:30:17.203Z,25.27
2019-02-17T22:32:46.242Z,24.63
2019-02-17T22:35:15.979Z,25.47
2019-02-17T22:37:45.137Z,25.30
2019-02-17T22:40:16.318Z,24.23
2019-02-17T22:42:45.544Z,25.40
2019-02-17T22:45:15.555Z,26.83
2019-02-17T22:47:45.297Z,24.23
2019-02-17T22:50:15.705Z,25.73
2019-02-17T22:52:46.785Z,26.63
2019-02-17T22:55:15.939Z,26.70
2019-02-17T22:57:45.456Z,25.80
2019-02-17T23:00:53.104Z,25.93
2019-02-17T23:03:22.629Z,27.07
2019-02-17T23:05:51.764Z,26.23
2019-02-17T23:08:21.181Z,26.47
2019-02-17T23:10:51.006Z,24.73
2019-02-17T23:13:20.495Z,26.30
2019-02-17T23:15:50.313Z,25.77
2019-02-17T23:18:20.239Z,25.87
2019-02-17T23:20:49.103Z,25.10
2019-02-17T23:23:18.211Z,26.03
2019-02-17T23:25:47.488Z,24.33
2019-02-17T23:28:16.799Z,23.90
2019-02-17T23:30:46.031Z,26.23
2019-02-17T23:33:15.273Z,25.20
2019-02-17T23:35:44.326Z,23.87
2019-02-17T23:38:13.099Z,25.90
2019-02-17T23:40:42.342Z,25.63
2019-02-17T23:43:11.250Z,25.00
2019-02-17T23:45:40.274Z,27.37
2019-02-17T23:48:09.408Z,24.97
2019-02-17T23:50:39.084Z,24.80
2019-02-17T23:53:08.135Z,23.00
2019-02-17T23:55:37.549Z,25.23
2019-02-17T23:58:06.495Z,25.40
